Time;durP1;ratioP1;P1;durP2;ratioP2;P2;SDS_P1;SDS_P2;PMS_P1;PMS_P2;Temp;Humidity;BMP_temperature;BMP_pressure;BME280_temperature;BME280_humidity;BME280_pressure;Samples;Min_cycle;Max_cycle;Signal;HPM_P1;HPM_P2
2023/12/12 00:02:04;;;;;;;13.40;5.35;;;;;;;;;;5048887;28;20412;-61
2023/12/12 00:04:29;;;;;;;16.00;6.60;;;;;;;;;;5049744;28;20458;-61
2023/12/12 00:06:54;;;;;;;16.80;6.28;;;;;;;;;;5049278;28;20899;-61
2023/12/12 00:09:19;;;;;;;15.57;5.93;;;;;;;;;;5048440;28;20384;-61
2023/12/12 00:11:45;;;;;;;13.83;5.87;;;;;;;;;;5049817;28;20394;-61
2023/12/12 00:14:10;;;;;;;12.50;5.87;;;;;;;;;;5048861;28;20394;-61
2023/12/12 00:16:35;;;;;;;14.77;5.80;;;;;;;;;;5049236;28;20381;-61
2023/12/12 00:19:01;;;;;;;11.57;5.60;;;;;;;;;;5049211;28;20400;-61
2023/12/12 00:21:26;;;;;;;14.70;6.35;;;;;;;;;;5049346;28;20442;-60
2023/12/12 00:23:51;;;;;;;12.47;5.43;;;;;;;;;;5048884;28;20440;-60
2023/12/12 00:26:17;;;;;;;14.03;6.40;;;;;;;;;;5049219;28;20394;-60
2023/12/12 00:28:42;;;;;;;13.47;6.17;;;;;;;;;;5049117;28;20397;-61
2023/12/12 00:31:07;;;;;;;11.97;6.17;;;;;;;;;;5048513;28;20451;-62
2023/12/12 00:33:33;;;;;;;13.13;5.63;;;;;;;;;;5049617;28;20446;-61
2023/12/12 00:35:59;;;;;;;13.53;6.27;;;;;;;;;;5049345;28;20443;-61
2023/12/12 00:38:28;;;;;;;13.82;6.18;;;;;;;;;;5048385;28;20400;-61
2023/12/12 00:40:54;;;;;;;15.10;6.43;;;;;;;;;;5049218;28;20431;-61
2023/12/12 00:43:21;;;;;;;12.53;5.80;;;;;;;;;;5048899;28;20892;-61
2023/12/12 00:45:46;;;;;;;14.55;6.30;;;;;;;;;;5047700;28;20966;-61
2023/12/12 00:48:11;;;;;;;13.27;6.00;;;;;;;;;;5044182;28;20401;-61
2023/12/12 00:50:37;;;;;;;14.63;5.60;;;;;;;;;;5048870;28;20457;-61
2023/12/12 00:53:02;;;;;;;12.43;5.63;;;;;;;;;;5048758;28;20389;-61
2023/12/12 00:55:28;;;;;;;12.80;5.40;;;;;;;;;;5049235;28;20464;-61
2023/12/12 00:57:53;;;;;;;13.33;5.27;;;;;;;;;;5048103;28;20397;-61
2023/12/12 01:00:18;;;;;;;14.63;5.83;;;;;;;;;;5048879;28;20386;-61
2023/12/12 01:02:44;;;;;;;12.68;5.60;;;;;;;;;;5049086;28;20404;-61
2023/12/12 01:05:09;;;;;;;15.23;5.93;;;;;;;;;;5048020;28;20421;-61
2023/12/12 01:07:34;;;;;;;12.07;5.50;;;;;;;;;;5049055;28;20455;-61
2023/12/12 01:10:00;;;;;;;12.67;5.50;;;;;;;;;;5048987;28;20828;-61
2023/12/12 01:12:25;;;;;;;13.83;5.70;;;;;;;;;;5050429;28;20409;-61
2023/12/12 01:14:50;;;;;;;14.25;5.60;;;;;;;;;;5052601;28;20424;-61
2023/12/12 01:17:16;;;;;;;14.17;5.53;;;;;;;;;;5052098;28;20394;-61
2023/12/12 01:19:41;;;;;;;11.40;5.20;;;;;;;;;;5052265;28;20412;-61
2023/12/12 01:22:06;;;;;;;13.47;6.17;;;;;;;;;;5051965;28;20422;-61
2023/12/12 01:24:32;;;;;;;13.80;5.43;;;;;;;;;;5052698;28;20404;-61
2023/12/12 01:26:57;;;;;;;9.30;4.10;;;;;;;;;;5051902;28;20473;-61
2023/12/12 01:29:22;;;;;;;11.27;4.67;;;;;;;;;;5051818;28;20409;-61
2023/12/12 01:31:47;;;;;;;10.60;4.20;;;;;;;;;;5052237;28;20492;-61
2023/12/12 01:34:13;;;;;;;9.80;3.97;;;;;;;;;;5051589;28;20460;-61
2023/12/12 01:36:38;;;;;;;11.47;4.57;;;;;;;;;;5052054;28;20398;-61
2023/12/12 01:39:04;;;;;;;11.40;4.83;;;;;;;;;;5051757;28;20429;-61
2023/12/12 01:41:29;;;;;;;13.98;4.90;;;;;;;;;;5051806;28;20421;-61
2023/12/12 01:43:55;;;;;;;13.00;4.87;;;;;;;;;;5050557;28;20433;-61
2023/12/12 01:46:20;;;;;;;12.13;4.80;;;;;;;;;;5050542;28;20397;-61
2023/12/12 01:48:46;;;;;;;11.10;4.93;;;;;;;;;;5046891;28;20409;-61
2023/12/12 01:51:11;;;;;;;10.95;4.80;;;;;;;;;;5051534;28;20406;-61
2023/12/12 01:53:37;;;;;;;14.40;5.37;;;;;;;;;;5051800;28;20958;-61
2023/12/12 01:56:02;;;;;;;11.25;4.90;;;;;;;;;;5050798;28;20404;-62
2023/12/12 01:58:28;;;;;;;13.77;5.30;;;;;;;;;;5050396;28;20460;-61
2023/12/12 02:00:53;;;;;;;11.37;4.90;;;;;;;;;;5051347;28;20768;-61
2023/12/12 02:03:19;;;;;;;11.77;4.63;;;;;;;;;;5050035;28;20398;-61
2023/12/12 02:05:44;;;;;;;10.85;4.70;;;;;;;;;;5051522;28;20402;-61
2023/12/12 02:08:10;;;;;;;9.07;4.23;;;;;;;;;;5050472;28;20454;-61
2023/12/12 02:10:35;;;;;;;12.57;4.43;;;;;;;;;;5051985;28;20390;-61
2023/12/12 02:13:00;;;;;;;12.07;4.53;;;;;;;;;;5050784;28;20397;-65
2023/12/12 02:15:26;;;;;;;10.87;5.07;;;;;;;;;;5051233;28;20496;-61
2023/12/12 02:17:51;;;;;;;10.38;5.40;;;;;;;;;;5050181;28;20962;-61
2023/12/12 02:20:16;;;;;;;12.07;5.23;;;;;;;;;;5051018;28;20413;-61
2023/12/12 02:22:42;;;;;;;10.67;4.97;;;;;;;;;;5050721;28;20864;-60
2023/12/12 02:25:08;;;;;;;10.50;5.63;;;;;;;;;;5051071;28;20396;-61
2023/12/12 02:27:33;;;;;;;10.70;4.63;;;;;;;;;;5049411;28;20389;-61
2023/12/12 02:29:58;;;;;;;12.50;5.40;;;;;;;;;;5050926;28;20452;-60
2023/12/12 02:32:24;;;;;;;12.03;4.87;;;;;;;;;;5050968;28;20480;-63
2023/12/12 02:34:49;;;;;;;12.63;5.43;;;;;;;;;;5051154;28;20409;-61
2023/12/12 02:37:14;;;;;;;8.77;4.63;;;;;;;;;;5050431;28;20401;-61
2023/12/12 02:39:41;;;;;;;10.10;4.43;;;;;;;;;;5051127;28;20433;-61
2023/12/12 02:42:07;;;;;;;9.48;4.32;;;;;;;;;;5026856;28;20451;-62
2023/12/12 02:44:32;;;;;;;12.97;5.83;;;;;;;;;;5029896;28;20388;-61
2023/12/12 02:46:57;;;;;;;13.40;6.97;;;;;;;;;;5021387;28;20395;-61
2023/12/12 02:49:23;;;;;;;12.33;6.20;;;;;;;;;;5019530;28;20941;-61
2023/12/12 02:51:48;;;;;;;9.83;5.17;;;;;;;;;;5031325;28;20418;-61
2023/12/12 02:54:13;;;;;;;12.10;6.03;;;;;;;;;;5015469;28;20404;-61
2023/12/12 02:56:38;;;;;;;11.48;5.75;;;;;;;;;;5015694;28;20411;-61
2023/12/12 02:59:04;;;;;;;12.53;5.57;;;;;;;;;;5035752;28;20484;-61
2023/12/12 03:01:29;;;;;;;12.40;5.77;;;;;;;;;;5029676;28;20470;-61
2023/12/12 03:03:54;;;;;;;13.10;5.53;;;;;;;;;;5040374;28;20908;-61
2023/12/12 03:06:20;;;;;;;11.63;5.73;;;;;;;;;;5024197;28;20758;-61
2023/12/12 03:08:45;;;;;;;10.10;5.40;;;;;;;;;;5020906;28;20419;-61
2023/12/12 03:11:10;;;;;;;11.70;6.23;;;;;;;;;;5019911;28;20493;-61
2023/12/12 03:13:35;;;;;;;13.67;6.83;;;;;;;;;;5013394;28;20402;-61
2023/12/12 03:16:01;;;;;;;12.80;6.30;;;;;;;;;;5014670;28;20486;-62
2023/12/12 03:18:26;;;;;;;12.93;6.40;;;;;;;;;;5013116;28;20399;-61
2023/12/12 03:20:51;;;;;;;10.80;5.88;;;;;;;;;;5020187;28;20411;-61
2023/12/12 03:23:17;;;;;;;14.30;5.30;;;;;;;;;;5020263;28;20691;-61
2023/12/12 03:25:42;;;;;;;10.30;6.00;;;;;;;;;;5019813;28;20477;-60
2023/12/12 03:28:07;;;;;;;10.17;5.40;;;;;;;;;;5039213;28;20408;-61
2023/12/12 03:30:32;;;;;;;9.73;5.00;;;;;;;;;;5034198;28;20445;-60
2023/12/12 03:32:58;;;;;;;10.23;5.55;;;;;;;;;;5019909;28;20396;-61
2023/12/12 03:35:23;;;;;;;10.63;5.63;;;;;;;;;;5015289;28;20754;-61
2023/12/12 03:37:48;;;;;;;10.00;5.60;;;;;;;;;;5012540;28;20431;-60
2023/12/12 03:40:14;;;;;;;11.90;6.57;;;;;;;;;;5030778;28;20440;-61
2023/12/12 03:42:39;;;;;;;10.00;5.63;;;;;;;;;;5036771;28;20396;-61
2023/12/12 03:45:06;;;;;;;9.88;6.18;;;;;;;;;;5024905;28;20456;-60
2023/12/12 03:47:31;;;;;;;13.67;6.80;;;;;;;;;;5019698;28;20478;-61
2023/12/12 03:49:57;;;;;;;12.13;5.93;;;;;;;;;;5016193;28;21161;-61
2023/12/12 03:52:22;;;;;;;11.93;6.30;;;;;;;;;;5019579;28;20437;-61
2023/12/12 03:54:47;;;;;;;11.63;6.33;;;;;;;;;;5039154;28;20492;-61
2023/12/12 03:57:12;;;;;;;11.60;6.40;;;;;;;;;;5025601;28;20399;-61
2023/12/12 03:59:38;;;;;;;9.82;6.15;;;;;;;;;;5012612;28;20429;-61
2023/12/12 04:02:03;;;;;;;12.27;6.20;;;;;;;;;;5011894;28;20794;-61
2023/12/12 04:04:28;;;;;;;12.10;6.83;;;;;;;;;;5014118;28;20814;-61
2023/12/12 04:06:54;;;;;;;10.13;5.77;;;;;;;;;;5039341;28;20756;-61
2023/12/12 04:09:19;;;;;;;12.13;7.57;;;;;;;;;;5033993;28;20390;-61
2023/12/12 04:11:44;;;;;;;14.13;7.70;;;;;;;;;;5019536;28;20822;-61
2023/12/12 04:16:00;;;;;;;12.93;7.10;;;;;;;;;;5042285;27;20736;-60
2023/12/12 04:18:25;;;;;;;15.73;8.20;;;;;;;;;;5036885;28;20890;-60
2023/12/12 04:20:51;;;;;;;13.10;7.30;;;;;;;;;;5032499;28;20402;-61
2023/12/12 04:23:16;;;;;;;17.57;8.10;;;;;;;;;;5028813;28;20410;-61
2023/12/12 04:25:42;;;;;;;15.07;7.45;;;;;;;;;;5028685;28;20482;-61
2023/12/12 04:28:07;;;;;;;12.93;7.63;;;;;;;;;;5033748;28;20534;-61
2023/12/12 04:30:33;;;;;;;12.27;6.90;;;;;;;;;;5042601;28;20747;-60
2023/12/12 04:32:58;;;;;;;12.63;7.23;;;;;;;;;;5038466;28;20395;-60
2023/12/12 04:35:24;;;;;;;12.10;6.90;;;;;;;;;;5036363;28;20395;-61
2023/12/12 04:37:49;;;;;;;12.33;8.10;;;;;;;;;;5036265;28;20398;-60
2023/12/12 04:40:14;;;;;;;15.17;8.57;;;;;;;;;;5036101;28;20430;-61
2023/12/12 04:42:39;;;;;;;16.33;9.00;;;;;;;;;;5035779;28;20937;-61
2023/12/12 04:45:05;;;;;;;13.05;7.72;;;;;;;;;;5032844;28;20403;-61
2023/12/12 04:47:30;;;;;;;12.23;8.70;;;;;;;;;;5028637;28;20402;-61
2023/12/12 04:49:56;;;;;;;11.23;7.20;;;;;;;;;;5023376;28;20403;-61
2023/12/12 04:52:21;;;;;;;10.53;6.80;;;;;;;;;;5031966;28;20405;-61
2023/12/12 04:54:47;;;;;;;12.37;6.87;;;;;;;;;;5036269;28;20433;-61
2023/12/12 04:57:12;;;;;;;15.33;8.77;;;;;;;;;;5034733;28;20437;-61
2023/12/12 04:59:37;;;;;;;15.13;8.27;;;;;;;;;;5036610;28;20459;-61
2023/12/12 05:02:03;;;;;;;14.93;8.27;;;;;;;;;;5035994;28;20391;-61
2023/12/12 05:04:28;;;;;;;13.53;8.10;;;;;;;;;;5036043;28;20881;-60
2023/12/12 05:06:53;;;;;;;14.43;8.30;;;;;;;;;;5035104;28;20402;-61
2023/12/12 05:09:18;;;;;;;12.77;8.37;;;;;;;;;;5028201;28;20410;-61
2023/12/12 05:11:44;;;;;;;15.00;8.73;;;;;;;;;;5027531;28;20407;-61
2023/12/12 05:14:10;;;;;;;13.73;9.00;;;;;;;;;;5033406;28;20785;-61
2023/12/12 05:16:36;;;;;;;15.75;9.35;;;;;;;;;;5056065;28;20405;-61
2023/12/12 05:19:01;;;;;;;15.47;8.57;;;;;;;;;;5054462;28;20478;-61
2023/12/12 05:21:26;;;;;;;14.90;8.30;;;;;;;;;;5055807;28;20397;-61
2023/12/12 05:23:52;;;;;;;15.50;9.33;;;;;;;;;;5055609;28;20413;-61
2023/12/12 05:26:18;;;;;;;16.83;9.07;;;;;;;;;;5047326;28;20397;-61
2023/12/12 05:28:43;;;;;;;14.90;9.10;;;;;;;;;;5041838;28;20408;-60
2023/12/12 05:31:09;;;;;;;14.37;8.43;;;;;;;;;;5035595;28;20444;-61
2023/12/12 05:33:34;;;;;;;16.23;8.82;;;;;;;;;;5033699;28;20657;-60
2023/12/12 05:35:59;;;;;;;15.83;8.20;;;;;;;;;;5034499;28;20405;-61
2023/12/12 05:38:24;;;;;;;12.97;8.33;;;;;;;;;;5038904;28;20402;-61
2023/12/12 05:40:50;;;;;;;15.73;8.87;;;;;;;;;;5041498;28;20476;-61
2023/12/12 05:43:15;;;;;;;15.93;8.73;;;;;;;;;;5041324;28;20405;-61
2023/12/12 05:45:41;;;;;;;21.83;11.93;;;;;;;;;;5041865;28;21316;-61
2023/12/12 05:48:07;;;;;;;17.67;10.67;;;;;;;;;;5036791;28;20424;-61
2023/12/12 05:50:32;;;;;;;17.50;9.70;;;;;;;;;;5041825;28;20421;-61
2023/12/12 05:52:57;;;;;;;20.38;10.00;;;;;;;;;;5038139;28;20482;-61
2023/12/12 05:55:23;;;;;;;16.97;10.43;;;;;;;;;;5033961;28;20410;-61
2023/12/12 05:57:48;;;;;;;16.70;10.30;;;;;;;;;;5033328;28;21119;-61
2023/12/12 06:00:14;;;;;;;14.43;8.63;;;;;;;;;;5036632;28;20856;-61
2023/12/12 06:02:39;;;;;;;21.83;11.18;;;;;;;;;;5041982;28;20781;-61
2023/12/12 06:05:07;;;;;;;19.20;10.77;;;;;;;;;;5041276;28;20405;-61
2023/12/12 06:07:33;;;;;;;16.08;9.32;;;;;;;;;;5041040;28;20397;-61
2023/12/12 06:09:58;;;;;;;17.10;9.00;;;;;;;;;;5041960;28;20918;-61
2023/12/12 06:12:24;;;;;;;16.37;9.10;;;;;;;;;;5041034;28;20880;-61
2023/12/12 06:14:50;;;;;;;13.90;8.50;;;;;;;;;;5039406;28;20406;-61
2023/12/12 06:17:15;;;;;;;15.93;8.70;;;;;;;;;;5015413;28;20409;-61
2023/12/12 06:19:40;;;;;;;19.97;10.33;;;;;;;;;;5033613;28;20413;-61
2023/12/12 06:22:07;;;;;;;19.33;9.37;;;;;;;;;;5034027;28;20394;-61
2023/12/12 06:24:32;;;;;;;17.73;8.88;;;;;;;;;;5041269;28;20382;-61
2023/12/12 06:26:58;;;;;;;14.87;8.30;;;;;;;;;;5041216;28;20406;-60
2023/12/12 06:29:23;;;;;;;16.80;8.93;;;;;;;;;;5040312;28;20409;-61
2023/12/12 06:31:48;;;;;;;16.45;9.27;;;;;;;;;;5040759;28;20762;-61
2023/12/12 06:34:13;;;;;;;16.23;9.13;;;;;;;;;;5040801;28;20413;-61
2023/12/12 06:36:39;;;;;;;17.67;9.60;;;;;;;;;;5040767;28;20410;-61
2023/12/12 06:39:04;;;;;;;17.67;9.10;;;;;;;;;;5032973;28;20630;-61
2023/12/12 06:41:30;;;;;;;19.70;9.88;;;;;;;;;;5032504;28;20753;-61
2023/12/12 06:43:55;;;;;;;22.13;12.30;;;;;;;;;;5032878;28;20905;-61
2023/12/12 06:46:20;;;;;;;15.37;8.97;;;;;;;;;;5045957;28;20458;-61
2023/12/12 06:48:46;;;;;;;17.33;9.10;;;;;;;;;;5037763;28;20419;-61
2023/12/12 06:51:11;;;;;;;22.67;9.90;;;;;;;;;;5031873;28;20512;-61
2023/12/12 06:53:37;;;;;;;20.20;10.65;;;;;;;;;;5032712;28;20445;-61
2023/12/12 06:56:02;;;;;;;23.90;12.30;;;;;;;;;;5032043;28;20631;-61
2023/12/12 06:58:28;;;;;;;26.97;11.67;;;;;;;;;;5038972;28;20397;-61
2023/12/12 07:00:53;;;;;;;23.65;9.15;;;;;;;;;;5040472;28;20413;-61
2023/12/12 07:03:18;;;;;;;26.53;11.20;;;;;;;;;;5039757;28;20442;-61
2023/12/12 07:05:44;;;;;;;32.07;13.73;;;;;;;;;;5053867;28;20408;-61
2023/12/12 07:08:09;;;;;;;23.33;10.77;;;;;;;;;;5035133;28;20412;-61
2023/12/12 07:10:35;;;;;;;25.97;10.50;;;;;;;;;;5031853;28;20408;-61
2023/12/12 07:13:00;;;;;;;31.83;12.77;;;;;;;;;;5032905;28;20421;-61
2023/12/12 07:15:26;;;;;;;27.52;10.38;;;;;;;;;;5037109;28;20420;-61
2023/12/12 07:17:53;;;;;;;41.08;14.23;;;;;;;;;;5039930;28;20492;-61
2023/12/12 07:20:18;;;;;;;31.38;11.30;;;;;;;;;;5039773;28;20410;-61
2023/12/12 07:22:44;;;;;;;38.13;12.80;;;;;;;;;;5030977;28;20761;-60
2023/12/12 07:25:09;;;;;;;47.30;14.00;;;;;;;;;;5048098;28;20492;-61
2023/12/12 07:27:34;;;;;;;35.90;13.47;;;;;;;;;;5049822;28;20485;-60
2023/12/12 07:30:00;;;;;;;47.72;15.18;;;;;;;;;;5049899;28;20930;-60
2023/12/12 07:32:26;;;;;;;40.13;12.17;;;;;;;;;;5049196;28;20885;-60
2023/12/12 07:34:52;;;;;;;42.77;12.57;;;;;;;;;;5049703;28;20397;-61
2023/12/12 07:37:17;;;;;;;41.83;13.25;;;;;;;;;;5049302;28;20389;-61
2023/12/12 07:39:42;;;;;;;60.03;22.90;;;;;;;;;;5046779;28;20401;-61
2023/12/12 07:42:08;;;;;;;38.33;12.20;;;;;;;;;;5048545;28;20409;-62
2023/12/12 07:44:33;;;;;;;50.38;18.02;;;;;;;;;;5049575;28;20523;-61
2023/12/12 07:47:01;;;;;;;66.43;17.83;;;;;;;;;;5048823;28;20440;-61
2023/12/12 07:49:27;;;;;;;39.83;12.60;;;;;;;;;;5042769;28;20876;-62
2023/12/12 07:51:52;;;;;;;61.30;17.45;;;;;;;;;;5049469;28;20478;-61
2023/12/12 07:54:18;;;;;;;75.27;18.20;;;;;;;;;;5048270;28;20908;-61
2023/12/12 07:56:43;;;;;;;46.33;12.53;;;;;;;;;;5048507;28;20463;-61
2023/12/12 07:59:08;;;;;;;61.83;16.80;;;;;;;;;;5048796;28;20402;-62
2023/12/12 08:01:36;;;;;;;54.87;15.37;;;;;;;;;;5048649;28;20405;-61
2023/12/12 08:04:04;;;;;;;43.57;16.00;;;;;;;;;;5048652;28;20420;-62
2023/12/12 08:06:30;;;;;;;51.03;16.80;;;;;;;;;;5049124;28;20397;-61
2023/12/12 08:08:55;;;;;;;43.50;15.13;;;;;;;;;;5048510;28;20756;-61
2023/12/12 08:11:24;;;;;;;47.13;15.30;;;;;;;;;;5048315;28;20401;-61
2023/12/12 08:13:49;;;;;;;65.18;19.02;;;;;;;;;;5048582;28;20428;-62
2023/12/12 08:16:15;;;;;;;42.87;14.73;;;;;;;;;;5048789;28;20884;-62
2023/12/12 08:18:40;;;;;;;43.27;15.80;;;;;;;;;;5049050;28;20863;-61
2023/12/12 08:21:06;;;;;;;34.13;13.10;;;;;;;;;;5047797;28;20385;-62
2023/12/12 08:23:31;;;;;;;37.50;13.80;;;;;;;;;;5048957;28;20472;-62
2023/12/12 08:25:57;;;;;;;31.98;11.50;;;;;;;;;;5048929;28;20456;-61
2023/12/12 08:28:24;;;;;;;34.33;13.65;;;;;;;;;;5048392;28;20776;-62
2023/12/12 08:30:49;;;;;;;33.67;12.67;;;;;;;;;;5049023;28;20397;-62
2023/12/12 08:33:15;;;;;;;30.13;12.30;;;;;;;;;;5047841;28;20405;-63
2023/12/12 08:35:40;;;;;;;30.30;11.47;;;;;;;;;;5047684;28;20486;-62
2023/12/12 08:38:06;;;;;;;29.13;11.30;;;;;;;;;;5048463;28;20390;-62
2023/12/12 08:40:32;;;;;;;30.60;11.65;;;;;;;;;;5028331;28;20391;-62
2023/12/12 08:42:57;;;;;;;35.03;12.93;;;;;;;;;;5029096;28;20724;-61
2023/12/12 08:45:22;;;;;;;29.70;11.40;;;;;;;;;;5029017;28;20395;-62
2023/12/12 08:47:48;;;;;;;33.33;12.40;;;;;;;;;;5029359;28;20894;-62
2023/12/12 08:50:13;;;;;;;35.60;13.73;;;;;;;;;;5023107;28;20882;-62
2023/12/12 08:52:38;;;;;;;42.05;14.60;;;;;;;;;;5028458;28;20441;-62
2023/12/12 08:55:05;;;;;;;27.70;10.83;;;;;;;;;;5028226;28;20403;-62
2023/12/12 08:57:30;;;;;;;31.08;11.60;;;;;;;;;;5028639;28;20383;-62
2023/12/12 08:59:56;;;;;;;28.80;11.33;;;;;;;;;;5028492;28;20413;-62
2023/12/12 09:02:21;;;;;;;28.20;10.53;;;;;;;;;;5028811;28;20406;-62
2023/12/12 09:04:46;;;;;;;27.10;10.70;;;;;;;;;;5029460;28;20407;-62
2023/12/12 09:07:12;;;;;;;31.00;11.35;;;;;;;;;;5031422;28;20414;-62
2023/12/12 09:09:37;;;;;;;29.57;10.57;;;;;;;;;;5031728;28;20395;-62
2023/12/12 09:12:03;;;;;;;27.57;10.70;;;;;;;;;;5031889;28;20478;-62
2023/12/12 09:14:28;;;;;;;31.95;11.75;;;;;;;;;;5032651;28;20403;-62
2023/12/12 09:16:53;;;;;;;25.80;9.83;;;;;;;;;;5032793;28;20461;-62
2023/12/12 09:19:19;;;;;;;27.93;9.60;;;;;;;;;;5030549;28;20495;-62
2023/12/12 09:21:44;;;;;;;32.00;10.33;;;;;;;;;;5032465;28;20391;-62
2023/12/12 09:24:09;;;;;;;29.27;10.07;;;;;;;;;;5031560;28;20403;-62
2023/12/12 09:26:35;;;;;;;28.87;9.77;;;;;;;;;;5032382;28;20398;-62
2023/12/12 09:29:01;;;;;;;29.15;9.45;;;;;;;;;;5031079;28;20407;-63
2023/12/12 09:31:26;;;;;;;32.13;9.10;;;;;;;;;;5022000;28;20958;-62
2023/12/12 09:33:51;;;;;;;24.97;9.53;;;;;;;;;;5011666;28;20457;-62
2023/12/12 09:36:17;;;;;;;31.55;11.50;;;;;;;;;;5019927;28;20403;-62
2023/12/12 09:38:42;;;;;;;33.90;11.03;;;;;;;;;;5025576;28;20407;-62
2023/12/12 09:41:09;;;;;;;29.17;9.50;;;;;;;;;;5031299;28;20399;-62
2023/12/12 09:43:34;;;;;;;32.72;10.65;;;;;;;;;;5030376;28;20793;-62
2023/12/12 09:46:00;;;;;;;27.90;8.90;;;;;;;;;;5030058;28;20465;-62
2023/12/12 09:48:25;;;;;;;31.77;10.30;;;;;;;;;;5024679;28;20426;-62
2023/12/12 09:50:50;;;;;;;27.20;9.73;;;;;;;;;;5032109;28;20395;-62
2023/12/12 09:53:16;;;;;;;35.97;10.52;;;;;;;;;;5031321;28;20411;-62
2023/12/12 09:55:42;;;;;;;31.33;10.52;;;;;;;;;;5030431;28;20494;-62
2023/12/12 09:58:07;;;;;;;33.83;9.90;;;;;;;;;;5029557;28;20885;-63
2023/12/12 10:00:32;;;;;;;27.27;8.90;;;;;;;;;;5031769;28;20391;-62
2023/12/12 10:02:59;;;;;;;24.17;8.73;;;;;;;;;;5031765;28;20403;-62
2023/12/12 10:05:26;;;;;;;27.10;9.00;;;;;;;;;;5030260;28;20413;-62
2023/12/12 10:07:51;;;;;;;27.15;8.80;;;;;;;;;;5030455;28;20426;-62
2023/12/12 10:10:17;;;;;;;29.03;9.17;;;;;;;;;;5029795;28;20399;-62
2023/12/12 10:12:42;;;;;;;33.20;9.83;;;;;;;;;;5031579;28;20407;-62
2023/12/12 10:15:26;;;;;;;28.45;9.15;;;;;;;;;;5030746;28;20482;-63
2023/12/12 10:17:55;;;;;;;26.63;9.15;;;;;;;;;;5030859;28;20862;-62
2023/12/12 10:20:22;;;;;;;28.00;8.90;;;;;;;;;;5030555;28;20453;-62
2023/12/12 10:22:47;;;;;;;31.27;8.63;;;;;;;;;;5031419;28;20411;-62
2023/12/12 10:25:14;;;;;;;28.30;9.43;;;;;;;;;;5030767;28;20955;-62
2023/12/12 10:27:42;;;;;;;28.90;9.43;;;;;;;;;;5030280;28;20469;-62
2023/12/12 10:30:07;;;;;;;27.48;8.57;;;;;;;;;;5030820;28;20404;-62
2023/12/12 10:32:36;;;;;;;28.45;8.60;;;;;;;;;;5029740;28;20862;-62
2023/12/12 10:35:01;;;;;;;23.17;8.02;;;;;;;;;;5030111;28;20442;-62
2023/12/12 10:37:26;;;;;;;28.00;8.17;;;;;;;;;;5030328;28;20415;-62
2023/12/12 10:39:52;;;;;;;23.80;8.33;;;;;;;;;;5031123;28;20431;-62
2023/12/12 10:42:17;;;;;;;23.70;8.55;;;;;;;;;;5030100;28;20426;-61
2023/12/12 10:44:43;;;;;;;28.23;9.33;;;;;;;;;;5030723;28;20539;-61
2023/12/12 10:47:08;;;;;;;26.95;8.80;;;;;;;;;;5029283;28;20408;-62
2023/12/12 10:49:35;;;;;;;25.23;8.03;;;;;;;;;;5040247;28;20399;-61
2023/12/12 10:52:02;;;;;;;26.58;7.60;;;;;;;;;;5045654;28;20886;-62
2023/12/12 10:54:28;;;;;;;25.13;7.32;;;;;;;;;;5045878;28;20403;-62
2023/12/12 10:56:53;;;;;;;25.03;7.47;;;;;;;;;;5040289;28;20406;-61
2023/12/12 10:59:18;;;;;;;24.17;7.80;;;;;;;;;;5029513;28;21044;-61
2023/12/12 11:01:45;;;;;;;24.40;7.33;;;;;;;;;;5031159;28;20387;-61
2023/12/12 11:04:10;;;;;;;26.45;6.75;;;;;;;;;;5030123;28;20485;-63
2023/12/12 11:06:36;;;;;;;22.77;6.13;;;;;;;;;;5029175;28;20526;-61
2023/12/12 11:09:01;;;;;;;22.87;5.70;;;;;;;;;;5029433;28;20574;-62
2023/12/12 11:11:26;;;;;;;23.33;5.87;;;;;;;;;;5030459;28;20747;-62
2023/12/12 11:13:51;;;;;;;22.02;6.22;;;;;;;;;;5030322;28;20406;-62
2023/12/12 11:16:17;;;;;;;22.70;5.70;;;;;;;;;;5030327;28;20431;-61
2023/12/12 11:18:42;;;;;;;22.27;5.87;;;;;;;;;;5028013;28;20414;-62
2023/12/12 11:21:07;;;;;;;22.87;6.13;;;;;;;;;;5030083;28;20426;-62
2023/12/12 11:23:40;;;;;;;24.57;6.67;;;;;;;;;;5029335;28;20774;-62
2023/12/12 11:26:05;;;;;;;24.10;5.70;;;;;;;;;;5028600;28;20426;-62
2023/12/12 11:28:35;;;;;;;21.97;5.70;;;;;;;;;;5027846;28;20902;-62
2023/12/12 11:31:00;;;;;;;24.08;5.65;;;;;;;;;;5029710;28;20502;-66
2023/12/12 11:33:26;;;;;;;18.73;5.17;;;;;;;;;;5030264;28;20478;-62
2023/12/12 11:35:51;;;;;;;17.80;5.20;;;;;;;;;;5030091;28;20419;-62
2023/12/12 11:38:27;;;;;;;22.60;5.70;;;;;;;;;;5033149;28;20413;-62
2023/12/12 11:41:09;;;;;;;19.55;5.60;;;;;;;;;;5049611;28;20433;-62
2023/12/12 11:43:35;;;;;;;19.50;4.93;;;;;;;;;;5047548;28;20484;-62
2023/12/12 11:46:14;;;;;;;19.97;5.23;;;;;;;;;;5029443;28;20989;-63
2023/12/12 11:48:39;;;;;;;22.85;5.45;;;;;;;;;;5024491;28;20406;-61
2023/12/12 11:51:24;;;;;;;19.23;5.00;;;;;;;;;;5029678;28;20422;-62
2023/12/12 11:53:49;;;;;;;15.93;4.65;;;;;;;;;;5029054;28;20410;-62
2023/12/12 11:56:15;;;;;;;16.93;4.47;;;;;;;;;;5029324;28;20399;-62
2023/12/12 11:58:40;;;;;;;19.93;4.87;;;;;;;;;;5029425;28;20414;-62
2023/12/12 12:01:06;;;;;;;15.47;4.10;;;;;;;;;;5028992;28;20410;-63
2023/12/12 12:03:31;;;;;;;14.13;3.90;;;;;;;;;;5030093;28;20391;-62
2023/12/12 12:05:56;;;;;;;15.83;4.10;;;;;;;;;;5029209;28;20415;-61
2023/12/12 12:08:21;;;;;;;19.13;4.83;;;;;;;;;;5027713;28;20883;-62
2023/12/12 12:10:54;;;;;;;16.87;4.23;;;;;;;;;;5029711;28;20434;-62
2023/12/12 12:13:19;;;;;;;13.43;3.83;;;;;;;;;;5029002;28;20441;-62
2023/12/12 12:15:49;;;;;;;18.40;4.17;;;;;;;;;;5029412;28;20407;-62
2023/12/12 12:18:24;;;;;;;15.05;3.60;;;;;;;;;;5028728;28;20419;-62
2023/12/12 12:20:49;;;;;;;14.90;3.85;;;;;;;;;;5025181;28;20432;-62
2023/12/12 12:23:15;;;;;;;15.60;3.80;;;;;;;;;;5028933;28;20437;-62
2023/12/12 12:25:40;;;;;;;14.60;3.63;;;;;;;;;;5028035;28;20487;-62
2023/12/12 12:28:05;;;;;;;13.40;3.30;;;;;;;;;;5027800;28;20486;-63
2023/12/12 12:30:31;;;;;;;14.57;3.70;;;;;;;;;;5029627;28;20411;-62
2023/12/12 12:32:57;;;;;;;18.10;3.63;;;;;;;;;;5036495;28;20421;-62
2023/12/12 12:35:22;;;;;;;15.25;3.67;;;;;;;;;;5028766;28;20468;-62
2023/12/12 12:37:47;;;;;;;16.23;3.90;;;;;;;;;;5032404;28;20403;-62
2023/12/12 12:40:18;;;;;;;13.57;3.27;;;;;;;;;;5032859;28;20387;-63
2023/12/12 12:42:43;;;;;;;13.00;3.28;;;;;;;;;;5028523;28;20431;-62
2023/12/12 12:45:09;;;;;;;16.03;3.50;;;;;;;;;;5032886;28;20910;-62
2023/12/12 12:47:34;;;;;;;12.50;3.53;;;;;;;;;;5032807;28;20403;-62
2023/12/12 12:50:00;;;;;;;12.70;3.20;;;;;;;;;;5028403;28;20406;-62
2023/12/12 12:52:25;;;;;;;13.03;3.40;;;;;;;;;;5032883;28;20390;-62
2023/12/12 12:54:50;;;;;;;15.67;2.90;;;;;;;;;;5032959;28;20399;-62
2023/12/12 12:57:16;;;;;;;14.73;3.83;;;;;;;;;;5031929;28;20926;-62
2023/12/12 12:59:41;;;;;;;11.82;3.17;;;;;;;;;;5032741;28;20403;-62
2023/12/12 13:02:07;;;;;;;15.03;3.30;;;;;;;;;;5032157;28;20818;-62
2023/12/12 13:04:33;;;;;;;12.73;2.83;;;;;;;;;;5033090;28;20395;-62
2023/12/12 13:07:00;;;;;;;10.80;2.80;;;;;;;;;;5041172;28;20401;-62
2023/12/12 13:09:25;;;;;;;10.10;2.90;;;;;;;;;;5049826;28;20397;-62
2023/12/12 13:11:50;;;;;;;10.63;3.13;;;;;;;;;;5052755;28;20446;-62
2023/12/12 13:14:16;;;;;;;10.30;2.40;;;;;;;;;;5052440;28;20452;-62
2023/12/12 13:16:41;;;;;;;9.63;2.33;;;;;;;;;;5034825;28;20464;-62
2023/12/12 13:19:09;;;;;;;11.35;2.40;;;;;;;;;;5031539;28;20414;-63
2023/12/12 13:21:34;;;;;;;9.95;2.40;;;;;;;;;;5032856;28;20495;-62
2023/12/12 13:23:59;;;;;;;9.20;2.00;;;;;;;;;;5031990;28;20766;-62
2023/12/12 13:26:25;;;;;;;8.47;2.20;;;;;;;;;;5030701;28;20456;-62
2023/12/12 13:28:52;;;;;;;8.23;2.20;;;;;;;;;;5034082;28;20892;-62
2023/12/12 13:31:20;;;;;;;6.65;2.17;;;;;;;;;;5041141;28;20432;-62
2023/12/12 13:33:45;;;;;;;8.95;2.15;;;;;;;;;;5035792;28;20470;-62
2023/12/12 13:36:11;;;;;;;9.80;2.20;;;;;;;;;;5031602;28;20533;-62
2023/12/12 13:38:36;;;;;;;12.53;2.80;;;;;;;;;;5030446;28;20754;-62
2023/12/12 13:41:02;;;;;;;8.45;1.92;;;;;;;;;;5031743;28;20407;-63
2023/12/12 13:43:27;;;;;;;7.83;1.97;;;;;;;;;;5032344;28;20757;-62
2023/12/12 13:45:52;;;;;;;9.87;2.10;;;;;;;;;;5031343;28;20417;-62
2023/12/12 13:48:18;;;;;;;9.27;1.90;;;;;;;;;;5025424;28;20422;-62
2023/12/12 13:50:44;;;;;;;8.60;2.00;;;;;;;;;;5031909;28;21020;-62
2023/12/12 13:53:10;;;;;;;8.73;2.33;;;;;;;;;;5030549;28;20473;-62
2023/12/12 13:55:35;;;;;;;8.05;2.20;;;;;;;;;;5031513;28;20439;-63
2023/12/12 13:58:01;;;;;;;8.53;2.10;;;;;;;;;;5030146;28;20443;-63
2023/12/12 14:00:27;;;;;;;14.27;4.97;;;;;;;;;;5029427;28;20396;-63
2023/12/12 14:02:52;;;;;;;7.82;1.90;;;;;;;;;;5032057;28;20893;-63
2023/12/12 14:05:18;;;;;;;9.13;2.00;;;;;;;;;;5034714;28;20421;-63
2023/12/12 14:07:43;;;;;;;20.23;8.07;;;;;;;;;;5031714;28;20411;-63
2023/12/12 14:10:10;;;;;;;18.37;7.77;;;;;;;;;;5031417;28;20399;-63
2023/12/12 14:12:35;;;;;;;8.65;2.67;;;;;;;;;;5031164;28;20484;-62
2023/12/12 14:15:01;;;;;;;9.55;2.22;;;;;;;;;;5031014;28;20422;-63
2023/12/12 14:17:26;;;;;;;12.17;3.23;;;;;;;;;;5031139;28;20465;-63
2023/12/12 14:19:51;;;;;;;9.97;3.20;;;;;;;;;;5031328;28;20414;-63
2023/12/12 14:22:17;;;;;;;10.10;3.75;;;;;;;;;;5031078;28;20400;-64